Pride Of Rotterdam — PBAJ — position and weather

sailwx.info

Track history (hours):
 
Tides and Currents Weather Stations Pressure Air Temp Water Temp Dewpoint Dewpoint Depression Visibility Wind Speed Wind Dir Waves Ship Positions

Pride Of Rotterdam

Operator: P&O Ferries

Last reported at 2017-Jul-21 02:28 UTC. Time now 2017-Jul-21 02:32 UTC.
Position N 53°21' E 000°58'.

Length 214 m; draft 6.1 m.

Type: Ship. MMSI: 244980000.

Date/timePositionNaut miles runAvg speedWind from/ knotsBaromVisibWave heightAir tempDewpointWater temp
2017-Jul-21 02:28N 53°21' E 000°58'917.3
2017-Jul-21 01:58N 53°14' E 001°07'818.1
2017-Jul-21 01:31N 53°08' E 001°16'1019.1
2017-Jul-21 01:01N 53°01' E 001°28'1020.4
2017-Jul-21 00:30N 52°54' E 001°40'1020.8
2017-Jul-21 00:00N 52°48' E 001°54'1020.5
2017-Jul-20 23:30N 52°42' E 002°08'6624.9
2017-Jul-20 20:52N 52°07' E 003°38'0 0.0
2017-Jul-20 20:30N 52°07' E 003°38'1 1.7
2017-Jul-20 20:00N 52°06' E 003°40'917.7
2017-Jul-20 19:30N 52°03' E 003°53'918.4
2017-Jul-20 19:00N 51°58' E 004°06'2 4.4
2017-Jul-20 18:30N 51°57' E 004°08'0 0.0
2017-Jul-20 18:00N 51°57' E 004°08'0 0.0
2017-Jul-20 17:30N 51°57' E 004°08'0 0.0
2017-Jul-20 17:00N 51°57' E 004°08'0 0.0
2017-Jul-20 16:30N 51°57' E 004°08'0 0.0
2017-Jul-20 16:00N 51°57' E 004°08'0 0.0
2017-Jul-20 15:30N 51°57' E 004°08'0 0.0
2017-Jul-20 15:00N 51°57' E 004°08'0 0.0
2017-Jul-20 14:00N 51°57' E 004°08'0 0.0
2017-Jul-20 13:30N 51°57' E 004°08'0 0.0
2017-Jul-20 13:00N 51°57' E 004°08'0 0.0
2017-Jul-20 11:46N 51°57' E 004°08'0 0.0
2017-Jul-20 11:30N 51°57' E 004°08'0 0.0
2017-Jul-20 10:50N 51°57' E 004°08'0 0.0
2017-Jul-20 10:30N 51°57' E 004°08'0 0.0
2017-Jul-20 10:00N 51°57' E 004°08'0 0.0
2017-Jul-20 09:30N 51°57' E 004°08'0 0.0
2017-Jul-20 09:00N 51°57' E 004°08'0 0.0
2017-Jul-20 08:30N 51°57' E 004°08'0 0.0
2017-Jul-20 08:00N 51°57' E 004°08'0 0.0
2017-Jul-20 07:30N 51°57' E 004°08'0 0.0
2017-Jul-20 07:00N 51°57' E 004°08'0 0.0
2017-Jul-20 06:30N 51°57' E 004°08'3 6.8
2017-Jul-20 06:00N 51°59' E 004°04'918.4
2017-Jul-20 05:30N 52°02' E 003°49'917.8
2017-Jul-20 05:00N 52°05' E 003°36'3218.8
2017-Jul-20 03:19N 52°23' E 002°54'919.5
2017-Jul-20 02:53N 52°29' E 002°43'10918.0
2017-Jul-19 20:51N 53°33' E 000°16'617.1
2017-Jul-19 20:30N 53°34' E 000°07'816.7
2017-Jul-19 20:00N 53°37' W 000°06'613.0
2017-Jul-19 19:31N 53°42' W 000°14'3 5.9
2017-Jul-19 18:58N 53°44' W 000°17'0 0.0
2017-Jul-19 18:31N 53°44' W 000°17'0 0.0
2017-Jul-19 18:00N 53°44' W 000°17'0 0.0
2017-Jul-19 17:30N 53°44' W 000°17'0 0.0
2017-Jul-19 17:00N 53°44' W 000°17'0 0.0
2017-Jul-19 16:30N 53°44' W 000°17'0 0.0
2017-Jul-19 15:59N 53°44' W 000°17'0 0.0
2017-Jul-19 15:29N 53°44' W 000°17'0 0.0
2017-Jul-19 14:59N 53°44' W 000°17'0 0.0
2017-Jul-19 14:29N 53°44' W 000°17'0 0.0
2017-Jul-19 13:59N 53°44' W 000°17'0 0.0
2017-Jul-19 13:28N 53°44' W 000°17'0 0.0
2017-Jul-19 12:58N 53°44' W 000°17'0 0.0
2017-Jul-19 12:28N 53°44' W 000°17'0 0.0
2017-Jul-19 11:58N 53°44' W 000°17'0 0.0
2017-Jul-19 11:30N 53°44' W 000°17'0 0.0
2017-Jul-19 11:00N 53°44' W 000°17'0 0.0
2017-Jul-19 10:30N 53°44' W 000°17'0 0.0
2017-Jul-19 10:00N 53°44' W 000°17'0 0.0
2017-Jul-19 09:30N 53°44' W 000°17'0 0.0
2017-Jul-19 08:59N 53°44' W 000°17'0 0.0
2017-Jul-19 08:26N 53°44' W 000°17'0 0.0
2017-Jul-19 07:59N 53°44' W 000°17'0 0.0
2017-Jul-19 07:29N 53°44' W 000°17'0 0.0
2017-Jul-19 06:59N 53°44' W 000°17'0 0.0
2017-Jul-19 06:28N 53°44' W 000°17'0 0.0
2017-Jul-19 06:00N 53°44' W 000°17'2 3.2
2017-Jul-19 05:30N 53°43' W 000°15'612.1
2017-Jul-19 05:00N 53°38' W 000°10'713.9
2017-Jul-19 04:29N 53°35' E 000°01'3416.7
2017-Jul-19 02:25N 53°22' E 000°55'717.3
2017-Jul-19 02:00N 53°18' E 001°05'917.1
2017-Jul-19 01:30N 53°12' E 001°16'917.0
2017-Jul-19 01:00N 53°08' E 001°27'917.7
2017-Jul-19 00:30N 53°03' E 001°40'918.5
2017-Jul-19 00:00N 52°58' E 001°53'1019.4
2017-Jul-18 23:30N 52°51' E 002°04'1020.4
2017-Jul-18 23:00N 52°43' E 002°16'1020.2
2017-Jul-18 22:30N 52°37' E 002°29'1020.0
2017-Jul-18 22:00N 52°32' E 002°43'1019.7
2017-Jul-18 21:30N 52°26' E 002°56'1019.5
2017-Jul-18 21:00N 52°20' E 003°08'1529.8
2017-Jul-18 20:30N 52°11' E 003°28'5 9.7
2017-Jul-18 20:00N 52°08' E 003°34'918.2
2017-Jul-18 19:30N 52°04' E 003°48'919.0
2017-Jul-18 19:00N 51°60' E 004°01'5 9.7
2017-Jul-18 18:30N 51°57' E 004°08'0 0.3
2017-Jul-18 18:00N 51°57' E 004°08'0 0.0
2017-Jul-18 17:30N 51°57' E 004°08'0 0.0
2017-Jul-18 17:00N 51°57' E 004°08'0 0.0
2017-Jul-18 16:30N 51°57' E 004°08'0 0.0
2017-Jul-18 16:00N 51°57' E 004°08'0 0.0
2017-Jul-18 15:30N 51°57' E 004°08'0 0.0
2017-Jul-18 15:00N 51°57' E 004°08'0 0.0
2017-Jul-18 14:00N 51°57' E 004°08'0 0.0
2017-Jul-18 13:30N 51°57' E 004°08'0 0.0
2017-Jul-18 13:00N 51°57' E 004°08'0 0.0
2017-Jul-18 12:30N 51°57' E 004°08'0 0.0
2017-Jul-18 12:00N 51°57' E 004°08'0 0.0
2017-Jul-18 11:30N 51°57' E 004°08'0 0.0
2017-Jul-18 11:00N 51°57' E 004°08'0 0.0
2017-Jul-18 10:30N 51°57' E 004°08'0 0.0
2017-Jul-18 10:00N 51°57' E 004°08'0 0.0
2017-Jul-18 09:30N 51°57' E 004°08'0 0.0
2017-Jul-18 09:00N 51°57' E 004°08'0 0.0
2017-Jul-18 08:30N 51°57' E 004°08'0 0.0
2017-Jul-18 08:00N 51°57' E 004°08'0 0.0
2017-Jul-18 07:31N 51°57' E 004°08'0 0.0
2017-Jul-18 07:00N 51°57' E 004°08'0 0.0
2017-Jul-18 06:30N 51°57' E 004°08'3 6.3
2017-Jul-18 06:00N 51°59' E 004°04'918.0
2017-Jul-18 05:30N 52°02' E 003°50'917.8
2017-Jul-18 05:00N 52°05' E 003°37'918.4
2017-Jul-18 04:30N 52°10' E 003°24'917.6
2017-Jul-18 04:00N 52°15' E 003°13'918.2
2017-Jul-18 03:30N 52°21' E 003°01'918.4
2017-Jul-18 03:00N 52°27' E 002°49'918.6
2017-Jul-18 02:30N 52°32' E 002°37'1019.1
2017-Jul-18 02:00N 52°38' E 002°25'1019.7
2017-Jul-18 01:30N 52°43' E 002°11'1020.1
2017-Jul-18 01:00N 52°47' E 001°56'1020.0
2017-Jul-18 00:30N 52°53' E 001°42'1020.1
2017-Jul-18 00:00N 52°60' E 001°30'1019.4
2017-Jul-17 23:30N 53°07' E 001°19'1019.2
2017-Jul-17 23:00N 53°14' E 001°08'1018.9
2017-Jul-17 22:28N 53°21' E 000°56'918.9
2017-Jul-17 22:00N 53°25' E 000°43'1418.9
2017-Jul-17 21:16N 53°32' E 000°23'517.9
2017-Jul-17 21:00N 53°33' E 000°15'816.0
2017-Jul-17 20:30N 53°35' E 000°02'714.7
2017-Jul-17 20:00N 53°38' W 000°10'611.5
2017-Jul-17 19:30N 53°43' W 000°15'2 4.0
2017-Jul-17 19:00N 53°44' W 000°17'0 0.0
2017-Jul-17 18:30N 53°44' W 000°17'0 0.0
2017-Jul-17 17:59N 53°44' W 000°17'0 0.0
2017-Jul-17 17:29N 53°44' W 000°17'0 0.0
2017-Jul-17 16:59N 53°44' W 000°17'0 0.0
2017-Jul-17 16:29N 53°44' W 000°17'0 0.0
2017-Jul-17 15:59N 53°44' W 000°17'0 0.0
2017-Jul-17 15:28N 53°44' W 000°17'0 0.0
2017-Jul-17 14:58N 53°44' W 000°17'0 0.0
2017-Jul-17 14:28N 53°44' W 000°17'0 0.0
2017-Jul-17 13:58N 53°44' W 000°17'0 0.0
2017-Jul-17 13:24N 53°44' W 000°17'0 0.0
2017-Jul-17 13:00N 53°44' W 000°17'0 0.0
2017-Jul-17 12:30N 53°44' W 000°17'0 0.0
2017-Jul-17 12:00N 53°44' W 000°17'0 0.0
2017-Jul-17 11:30N 53°44' W 000°17'0 0.0
2017-Jul-17 10:59N 53°44' W 000°17'0 0.0
2017-Jul-17 10:29N 53°44' W 000°17'0 0.0
2017-Jul-17 09:59N 53°44' W 000°17'0 0.0
2017-Jul-17 09:29N 53°44' W 000°17'0 0.0
2017-Jul-17 08:59N 53°44' W 000°17'0 0.0
2017-Jul-17 08:28N 53°44' W 000°17'0 0.0
2017-Jul-17 07:58N 53°44' W 000°17'0 0.0
2017-Jul-17 07:28N 53°44' W 000°17'0 0.0
2017-Jul-17 06:58N 53°44' W 000°17'0 0.0
2017-Jul-17 06:30N 53°44' W 000°17'0 0.0
2017-Jul-17 06:00N 53°44' W 000°17'1 1.4
2017-Jul-17 05:30N 53°44' W 000°16'612.5
2017-Jul-17 05:00N 53°38' W 000°11'713.6
2017-Jul-17 04:31N 53°35' W 000°01'3616.4
2017-Jul-17 02:20N 53°23' E 000°55'617.6
2017-Jul-17 02:01N 53°20' E 001°04'917.2
2017-Jul-17 01:30N 53°14' E 001°14'816.7
2017-Jul-17 01:00N 53°09' E 001°25'816.5
2017-Jul-17 00:31N 53°04' E 001°36'816.5
2017-Jul-17 00:01N 52°59' E 001°48'816.5
2017-Jul-16 23:31N 52°54' E 001°58'917.3
2017-Jul-16 23:01N 52°48' E 002°09'918.2
2017-Jul-16 22:30N 52°42' E 002°20'918.5
2017-Jul-16 22:00N 52°36' E 002°32'1918.8
2017-Jul-16 20:58N 52°25' E 002°58'3433.1
2017-Jul-16 19:57N 52°06' E 003°44'0 0.0
2017-Jul-16 19:30N 52°06' E 003°44'2 4.8
2017-Jul-16 19:00N 52°05' E 003°48'917.5
2017-Jul-16 18:31N 52°01' E 003°60'612.2
2017-Jul-16 18:00N 51°57' E 004°08'0 0.7
2017-Jul-16 17:30N 51°57' E 004°08'0 0.0
2017-Jul-16 17:00N 51°57' E 004°08'0 0.0
2017-Jul-16 16:30N 51°57' E 004°08'0 0.0
2017-Jul-16 16:00N 51°57' E 004°08'0 0.0
2017-Jul-16 15:30N 51°57' E 004°08'0 0.0
2017-Jul-16 15:00N 51°57' E 004°08'0 0.0
2017-Jul-16 14:30N 51°57' E 004°08'0 0.0
2017-Jul-16 14:00N 51°57' E 004°08'0 0.0
2017-Jul-16 13:30N 51°57' E 004°08'0 0.0
2017-Jul-16 13:00N 51°57' E 004°08'0 0.0
2017-Jul-16 12:30N 51°57' E 004°08'0 0.0
2017-Jul-16 12:00N 51°57' E 004°08'0 0.0
2017-Jul-16 11:30N 51°57' E 004°08'0 0.0
2017-Jul-16 11:00N 51°57' E 004°08'0 0.0
2017-Jul-16 10:30N 51°57' E 004°08'0 0.0
2017-Jul-16 10:00N 51°57' E 004°08'0 0.0
2017-Jul-16 09:29N 51°57' E 004°08'0 0.0
2017-Jul-16 09:00N 51°57' E 004°08'0 0.0
2017-Jul-16 08:30N 51°57' E 004°08'0 0.0
2017-Jul-16 08:00N 51°57' E 004°08'0 0.0
2017-Jul-16 07:30N 51°57' E 004°08'0 0.0
2017-Jul-16 07:00N 51°57' E 004°08'2 4.2
2017-Jul-16 06:30N 51°58' E 004°06'1019.8
2017-Jul-16 06:00N 52°01' E 003°50'816.1
2017-Jul-16 05:30N 52°04' E 003°38'7016.4
2017-Jul-16 01:16N 52°45' E 002°05'417.1
2017-Jul-16 01:00N 52°47' E 001°59'917.3
2017-Jul-16 00:30N 52°51' E 001°46'917.6
2017-Jul-16 00:00N 52°55' E 001°33'917.8
2017-Jul-15 23:30N 52°59' E 001°20'5117.1
2017-Jul-15 20:30N 53°32' E 000°15'815.7
2017-Jul-15 20:00N 53°35' E 000°03'815.3
2017-Jul-15 19:31N 53°38' W 000°09'611.6
2017-Jul-15 19:00N 53°43' W 000°14'2 4.2
2017-Jul-15 18:30N 53°44' W 000°17'0 0.0
2017-Jul-15 18:00N 53°44' W 000°17'0 0.0
2017-Jul-15 17:30N 53°44' W 000°17'0 0.0
2017-Jul-15 16:59N 53°44' W 000°17'0 0.0
2017-Jul-15 16:29N 53°44' W 000°17'0 0.0
2017-Jul-15 15:59N 53°44' W 000°17'0 0.0
2017-Jul-15 15:29N 53°44' W 000°17'0 0.0
2017-Jul-15 14:55N 53°44' W 000°17'0 0.0
2017-Jul-15 13:58N 53°44' W 000°17'0 0.0
2017-Jul-15 13:28N 53°44' W 000°17'0 0.0
2017-Jul-15 12:58N 53°44' W 000°17'0 0.0
2017-Jul-15 12:30N 53°44' W 000°17'0 0.0
2017-Jul-15 12:00N 53°44' W 000°17'0 0.0
2017-Jul-15 11:30N 53°44' W 000°17'0 0.0
2017-Jul-15 10:57N 53°44' W 000°17'0 0.0
2017-Jul-15 10:30N 53°44' W 000°17'0 0.0
2017-Jul-15 09:59N 53°44' W 000°17'0 0.0
2017-Jul-15 09:29N 53°44' W 000°17'0 0.0
2017-Jul-15 08:59N 53°44' W 000°17'0 0.0
2017-Jul-15 08:29N 53°44' W 000°17'0 0.0
2017-Jul-15 07:59N 53°44' W 000°17'0 0.0
2017-Jul-15 07:28N 53°44' W 000°17'0 0.0
2017-Jul-15 07:00N 53°44' W 000°17'3 6.1
2017-Jul-15 06:30N 53°42' W 000°14'713.8
2017-Jul-15 06:00N 53°37' W 000°06'918.3
2017-Jul-15 05:30N 53°33' E 000°09'2716.2
2017-Jul-15 03:51N 53°23' E 000°51'617.3
2017-Jul-15 03:30N 53°20' E 000°59'917.8
2017-Jul-15 03:00N 53°15' E 001°10'917.4
2017-Jul-15 02:30N 53°09' E 001°22'816.8
2017-Jul-15 02:01N 53°04' E 001°33'816.3
2017-Jul-15 01:30N 52°60' E 001°45'815.8
2017-Jul-15 01:00N 52°55' E 001°55'815.3
2017-Jul-15 00:31N 52°50' E 002°05'7118.0
2017-Jul-14 20:34N 52°07' E 003°37'0 0.0
2017-Jul-14 20:30N 52°07' E 003°37'3 7.1
2017-Jul-14 20:00N 52°06' E 003°42'815.4
2017-Jul-14 19:30N 52°02' E 003°54'816.8
2017-Jul-14 19:00N 51°59' E 004°06'2 4.5
2017-Jul-14 18:30N 51°57' E 004°08'0 0.0
2017-Jul-14 18:00N 51°57' E 004°08'0 0.0
2017-Jul-14 17:30N 51°57' E 004°08'0 0.0
2017-Jul-14 17:00N 51°57' E 004°08'0 0.0
2017-Jul-14 16:30N 51°57' E 004°08'0 0.0
2017-Jul-14 16:00N 51°57' E 004°08'0 0.0
2017-Jul-14 15:29N 51°57' E 004°08'0 0.0
2017-Jul-14 15:00N 51°57' E 004°08'0 0.0
2017-Jul-14 14:30N 51°57' E 004°08'0 0.0
2017-Jul-14 14:00N 51°57' E 004°08'0 0.0
2017-Jul-14 13:30N 51°57' E 004°08'0 0.0
2017-Jul-14 13:00N 51°57' E 004°08'0 0.0
2017-Jul-14 12:30N 51°57' E 004°08'0 0.0
2017-Jul-14 12:00N 51°57' E 004°08'0 0.0
2017-Jul-14 11:30N 51°57' E 004°08'0 0.0
2017-Jul-14 11:00N 51°57' E 004°08'0 0.0
2017-Jul-14 10:30N 51°57' E 004°08'0 0.0
2017-Jul-14 10:00N 51°57' E 004°08'0 0.0
2017-Jul-14 09:30N 51°57' E 004°08'0 0.0
2017-Jul-14 09:00N 51°57' E 004°08'0 0.0
2017-Jul-14 08:30N 51°57' E 004°08'0 0.0
2017-Jul-14 08:00N 51°57' E 004°08'0 0.0
2017-Jul-14 07:30N 51°57' E 004°08'0 0.0
2017-Jul-14 07:00N 51°57' E 004°08'0 0.0
2017-Jul-14 06:30N 51°57' E 004°08'2 4.4
2017-Jul-14 06:01N 51°58' E 004°06'918.4
2017-Jul-14 05:30N 52°01' E 003°51'6817.9
2017-Jul-14 01:42N 52°38' E 002°18'418.3
2017-Jul-14 01:29N 52°40' E 002°13'918.6
2017-Jul-14 01:00N 52°45' E 001°60'1019.2
2017-Jul-14 00:30N 52°50' E 001°46'918.9
2017-Jul-14 00:00N 52°56' E 001°35'1019.5
2017-Jul-13 23:30N 53°04' E 001°25'1019.4
2017-Jul-13 23:00N 53°11' E 001°14'917.9
2017-Jul-13 22:30N 53°17' E 001°03'3118.5
2017-Jul-13 20:49N 53°31' E 000°16'516.9
2017-Jul-13 20:30N 53°33' E 000°08'816.9
2017-Jul-13 20:00N 53°37' W 000°05'713.8
2017-Jul-13 19:30N 53°41' W 000°14'4 7.0
2017-Jul-13 18:59N 53°44' W 000°17'0 0.0
2017-Jul-13 18:29N 53°44' W 000°17'0 0.0
2017-Jul-13 17:59N 53°44' W 000°17'0 0.0
2017-Jul-13 17:29N 53°44' W 000°17'0 0.0
2017-Jul-13 16:58N 53°44' W 000°17'0 0.0
2017-Jul-13 16:28N 53°44' W 000°17'0 0.0
2017-Jul-13 15:58N 53°44' W 000°17'0 0.0
2017-Jul-13 15:28N 53°44' W 000°17'0 0.0
2017-Jul-13 15:00N 53°44' W 000°17'0 0.0
2017-Jul-13 14:30N 53°44' W 000°17'0 0.0
2017-Jul-13 14:00N 53°44' W 000°17'0 0.0
2017-Jul-13 13:30N 53°44' W 000°17'0 0.0
2017-Jul-13 13:00N 53°44' W 000°17'0 0.0
2017-Jul-13 12:29N 53°44' W 000°17'0 0.0
2017-Jul-13 11:59N 53°44' W 000°17'0 0.0
2017-Jul-13 11:29N 53°44' W 000°17'0 0.0
2017-Jul-13 10:59N 53°44' W 000°17'0 0.0
2017-Jul-13 10:28N 53°44' W 000°17'0 0.0
2017-Jul-13 09:58N 53°44' W 000°17'0 0.0
2017-Jul-13 09:28N 53°44' W 000°17'0 0.0
2017-Jul-13 08:58N 53°44' W 000°17'0 0.0
2017-Jul-13 08:28N 53°44' W 000°17'0 0.0
2017-Jul-13 08:00N 53°44' W 000°17'0 0.0
2017-Jul-13 07:30N 53°44' W 000°17'0 0.0
2017-Jul-13 07:00N 53°44' W 000°17'0 0.0
2017-Jul-13 06:30N 53°44' W 000°17'0 0.0
2017-Jul-13 06:00N 53°44' W 000°17'4 7.1
2017-Jul-13 05:30N 53°41' W 000°14'713.8
2017-Jul-13 05:01N 53°37' W 000°05'918.5
2017-Jul-13 04:30N 53°33' E 000°10'1116.5
2017-Jul-13 03:52N 53°32' E 000°27'717.3
2017-Jul-13 03:29N 53°28' E 000°37'917.9
2017-Jul-13 02:59N 53°24' E 000°50'919.1
2017-Jul-13 02:30N 53°19' E 001°03'1019.7
2017-Jul-13 02:01N 53°13' E 001°15'1020.1
2017-Jul-13 01:30N 53°07' E 001°29'1019.6
2017-Jul-13 01:01N 53°02' E 001°43'1019.0
2017-Jul-13 00:30N 52°56' E 001°55'918.3
2017-Jul-13 00:00N 52°50' E 002°07'7119.9
2017-Jul-12 20:26N 52°06' E 003°39'1 2.1
2017-Jul-12 20:00N 52°06' E 003°40'917.5
2017-Jul-12 19:31N 52°03' E 003°54'918.1
2017-Jul-12 19:00N 51°58' E 004°06'2 4.0
2017-Jul-12 18:30N 51°57' E 004°08'0 0.0
2017-Jul-12 18:00N 51°57' E 004°08'0 0.0
2017-Jul-12 17:30N 51°57' E 004°08'0 0.0
2017-Jul-12 17:00N 51°57' E 004°08'0 0.0
2017-Jul-12 16:30N 51°57' E 004°08'0 0.0
2017-Jul-12 16:00N 51°57' E 004°08'0 0.0
2017-Jul-12 15:30N 51°57' E 004°08'0 0.0
2017-Jul-12 15:00N 51°57' E 004°08'0 0.0
2017-Jul-12 14:00N 51°57' E 004°08'0 0.0
2017-Jul-12 13:30N 51°57' E 004°08'0 0.0
2017-Jul-12 13:00N 51°57' E 004°08'0 0.0
2017-Jul-12 12:30N 51°57' E 004°08'0 0.0
2017-Jul-12 12:00N 51°57' E 004°08'0 0.0
2017-Jul-12 11:30N 51°57' E 004°08'0 0.0
2017-Jul-12 11:00N 51°57' E 004°08'0 0.0
2017-Jul-12 10:29N 51°57' E 004°08'0 0.0
2017-Jul-12 10:00N 51°57' E 004°08'0 0.0
2017-Jul-12 09:30N 51°57' E 004°08'0 0.0
2017-Jul-12 09:00N 51°57' E 004°08'0 0.0
2017-Jul-12 08:30N 51°57' E 004°08'0 0.0
2017-Jul-12 07:59N 51°57' E 004°08'0 0.0
2017-Jul-12 07:31N 51°57' E 004°08'0 0.0
2017-Jul-12 07:00N 51°57' E 004°08'0 0.0
2017-Jul-12 06:30N 51°57' E 004°08'4 8.0
2017-Jul-12 06:00N 51°59' E 004°03'815.7
2017-Jul-12 05:30N 52°01' E 003°50'7217.7
2017-Jul-12 01:25N 52°44' E 002°15'818.9
2017-Jul-12 01:00N 52°49' E 002°06'918.7
2017-Jul-12 00:30N 52°55' E 001°54'1019.0
2017-Jul-12 00:00N 53°00' E 001°41'1019.4
2017-Jul-11 23:30N 53°06' E 001°28'1019.6
2017-Jul-11 23:00N 53°12' E 001°15'1119.4
2017-Jul-11 22:27N 53°19' E 001°01'2718.6
2017-Jul-11 20:59N 53°30' E 000°19'918.5
2017-Jul-11 20:30N 53°34' E 000°06'1019.2
2017-Jul-11 20:00N 53°38' W 000°09'714.5
2017-Jul-11 19:30N 53°44' W 000°16'1 1.1
2017-Jul-11 18:59N 53°44' W 000°17'0 0.0
2017-Jul-11 18:29N 53°44' W 000°17'0 0.0
2017-Jul-11 17:58N 53°44' W 000°17'0 0.0
2017-Jul-11 17:28N 53°44' W 000°17'0 0.0
2017-Jul-11 16:58N 53°44' W 000°17'0 0.0
2017-Jul-11 16:28N 53°44' W 000°17'0 0.0
2017-Jul-11 15:58N 53°44' W 000°17'0 0.0
2017-Jul-11 15:30N 53°44' W 000°17'0 0.0
2017-Jul-11 15:00N 53°44' W 000°17'0 0.0
2017-Jul-11 14:30N 53°44' W 000°17'0 0.0
2017-Jul-11 14:00N 53°44' W 000°17'0 0.0
2017-Jul-11 13:30N 53°44' W 000°17'0 0.0
2017-Jul-11 12:59N 53°44' W 000°17'0 0.0
2017-Jul-11 12:29N 53°44' W 000°17'0 0.0
2017-Jul-11 11:59N 53°44' W 000°17'0 0.0
2017-Jul-11 11:29N 53°44' W 000°17'0 0.0
2017-Jul-11 10:58N 53°44' W 000°17'0 0.0
2017-Jul-11 10:22N 53°44' W 000°17'0 0.0
2017-Jul-11 09:58N 53°44' W 000°17'0 0.0
2017-Jul-11 09:28N 53°44' W 000°17'0 0.0
2017-Jul-11 08:58N 53°44' W 000°17'0 0.0
2017-Jul-11 08:30N 53°44' W 000°17'0 0.0
2017-Jul-11 08:00N 53°44' W 000°17'0 0.0
2017-Jul-11 07:30N 53°44' W 000°17'0 0.0
2017-Jul-11 07:00N 53°44' W 000°17'0 0.0
2017-Jul-11 06:30N 53°44' W 000°17'0 0.0
2017-Jul-11 06:00N 53°44' W 000°17'3 6.5
2017-Jul-11 05:30N 53°42' W 000°14'917.5
2017-Jul-11 05:00N 53°36' W 000°02'1219.6
2017-Jul-11 04:25N 53°33' E 000°16'  
Track history (hours):
 
Tides and Currents Weather Stations Pressure Air Temp Water Temp Dewpoint Dewpoint Depression Visibility Wind Speed Wind Dir Waves Ship Positions

Pride Of Rotterdam

Operator: P&O Ferries

Last reported at 2017-Jul-21 02:28 UTC. Time now 2017-Jul-21 02:32 UTC.
Position N 53°21' E 000°58'.

Length 214 m; draft 6.1 m.

Type: Ship. MMSI: 244980000.

Date/timePositionNaut miles runAvg speedWind from/ knotsBaromVisibWave heightAir tempDewpointWater temp
2017-Jul-21 02:28N 53°21' E 000°58'917.3
2017-Jul-21 01:58N 53°14' E 001°07'818.1
2017-Jul-21 01:31N 53°08' E 001°16'1019.1
2017-Jul-21 01:01N 53°01' E 001°28'1020.4
2017-Jul-21 00:30N 52°54' E 001°40'1020.8
2017-Jul-21 00:00N 52°48' E 001°54'1020.5
2017-Jul-20 23:30N 52°42' E 002°08'6624.9
2017-Jul-20 20:52N 52°07' E 003°38'0 0.0
2017-Jul-20 20:30N 52°07' E 003°38'1 1.7
2017-Jul-20 20:00N 52°06' E 003°40'917.7
2017-Jul-20 19:30N 52°03' E 003°53'918.4
2017-Jul-20 19:00N 51°58' E 004°06'2 4.4
2017-Jul-20 18:30N 51°57' E 004°08'0 0.0
2017-Jul-20 18:00N 51°57' E 004°08'0 0.0
2017-Jul-20 17:30N 51°57' E 004°08'0 0.0
2017-Jul-20 17:00N 51°57' E 004°08'0 0.0
2017-Jul-20 16:30N 51°57' E 004°08'0 0.0
2017-Jul-20 16:00N 51°57' E 004°08'0 0.0
2017-Jul-20 15:30N 51°57' E 004°08'0 0.0
2017-Jul-20 15:00N 51°57' E 004°08'0 0.0
2017-Jul-20 14:00N 51°57' E 004°08'0 0.0
2017-Jul-20 13:30N 51°57' E 004°08'0 0.0
2017-Jul-20 13:00N 51°57' E 004°08'0 0.0
2017-Jul-20 11:46N 51°57' E 004°08'0 0.0
2017-Jul-20 11:30N 51°57' E 004°08'0 0.0
2017-Jul-20 10:50N 51°57' E 004°08'0 0.0
2017-Jul-20 10:30N 51°57' E 004°08'0 0.0
2017-Jul-20 10:00N 51°57' E 004°08'0 0.0
2017-Jul-20 09:30N 51°57' E 004°08'0 0.0
2017-Jul-20 09:00N 51°57' E 004°08'0 0.0
2017-Jul-20 08:30N 51°57' E 004°08'0 0.0
2017-Jul-20 08:00N 51°57' E 004°08'0 0.0
2017-Jul-20 07:30N 51°57' E 004°08'0 0.0
2017-Jul-20 07:00N 51°57' E 004°08'0 0.0
2017-Jul-20 06:30N 51°57' E 004°08'3 6.8
2017-Jul-20 06:00N 51°59' E 004°04'918.4
2017-Jul-20 05:30N 52°02' E 003°49'917.8
2017-Jul-20 05:00N 52°05' E 003°36'3218.8
2017-Jul-20 03:19N 52°23' E 002°54'919.5
2017-Jul-20 02:53N 52°29' E 002°43'10918.0
2017-Jul-19 20:51N 53°33' E 000°16'617.1
2017-Jul-19 20:30N 53°34' E 000°07'816.7
2017-Jul-19 20:00N 53°37' W 000°06'613.0
2017-Jul-19 19:31N 53°42' W 000°14'3 5.9
2017-Jul-19 18:58N 53°44' W 000°17'0 0.0
2017-Jul-19 18:31N 53°44' W 000°17'0 0.0
2017-Jul-19 18:00N 53°44' W 000°17'0 0.0
2017-Jul-19 17:30N 53°44' W 000°17'0 0.0
2017-Jul-19 17:00N 53°44' W 000°17'0 0.0
2017-Jul-19 16:30N 53°44' W 000°17'0 0.0
2017-Jul-19 15:59N 53°44' W 000°17'0 0.0
2017-Jul-19 15:29N 53°44' W 000°17'0 0.0
2017-Jul-19 14:59N 53°44' W 000°17'0 0.0
2017-Jul-19 14:29N 53°44' W 000°17'0 0.0
2017-Jul-19 13:59N 53°44' W 000°17'0 0.0
2017-Jul-19 13:28N 53°44' W 000°17'0 0.0
2017-Jul-19 12:58N 53°44' W 000°17'0 0.0
2017-Jul-19 12:28N 53°44' W 000°17'0 0.0
2017-Jul-19 11:58N 53°44' W 000°17'0 0.0
2017-Jul-19 11:30N 53°44' W 000°17'0 0.0
2017-Jul-19 11:00N 53°44' W 000°17'0 0.0
2017-Jul-19 10:30N 53°44' W 000°17'0 0.0
2017-Jul-19 10:00N 53°44' W 000°17'0 0.0
2017-Jul-19 09:30N 53°44' W 000°17'0 0.0
2017-Jul-19 08:59N 53°44' W 000°17'0 0.0
2017-Jul-19 08:26N 53°44' W 000°17'0 0.0
2017-Jul-19 07:59N 53°44' W 000°17'0 0.0
2017-Jul-19 07:29N 53°44' W 000°17'0 0.0
2017-Jul-19 06:59N 53°44' W 000°17'0 0.0
2017-Jul-19 06:28N 53°44' W 000°17'0 0.0
2017-Jul-19 06:00N 53°44' W 000°17'2 3.2
2017-Jul-19 05:30N 53°43' W 000°15'612.1
2017-Jul-19 05:00N 53°38' W 000°10'713.9
2017-Jul-19 04:29N 53°35' E 000°01'3416.7
2017-Jul-19 02:25N 53°22' E 000°55'717.3
2017-Jul-19 02:00N 53°18' E 001°05'917.1
2017-Jul-19 01:30N 53°12' E 001°16'917.0
2017-Jul-19 01:00N 53°08' E 001°27'917.7
2017-Jul-19 00:30N 53°03' E 001°40'918.5
2017-Jul-19 00:00N 52°58' E 001°53'1019.4
2017-Jul-18 23:30N 52°51' E 002°04'1020.4
2017-Jul-18 23:00N 52°43' E 002°16'1020.2
2017-Jul-18 22:30N 52°37' E 002°29'1020.0
2017-Jul-18 22:00N 52°32' E 002°43'1019.7
2017-Jul-18 21:30N 52°26' E 002°56'1019.5
2017-Jul-18 21:00N 52°20' E 003°08'1529.8
2017-Jul-18 20:30N 52°11' E 003°28'5 9.7
2017-Jul-18 20:00N 52°08' E 003°34'918.2
2017-Jul-18 19:30N 52°04' E 003°48'919.0
2017-Jul-18 19:00N 51°60' E 004°01'5 9.7
2017-Jul-18 18:30N 51°57' E 004°08'0 0.3
2017-Jul-18 18:00N 51°57' E 004°08'0 0.0
2017-Jul-18 17:30N 51°57' E 004°08'0 0.0
2017-Jul-18 17:00N 51°57' E 004°08'0 0.0
2017-Jul-18 16:30N 51°57' E 004°08'0 0.0
2017-Jul-18 16:00N 51°57' E 004°08'0 0.0
2017-Jul-18 15:30N 51°57' E 004°08'0 0.0
2017-Jul-18 15:00N 51°57' E 004°08'0 0.0
2017-Jul-18 14:00N 51°57' E 004°08'0 0.0
2017-Jul-18 13:30N 51°57' E 004°08'0 0.0
2017-Jul-18 13:00N 51°57' E 004°08'0 0.0
2017-Jul-18 12:30N 51°57' E 004°08'0 0.0
2017-Jul-18 12:00N 51°57' E 004°08'0 0.0
2017-Jul-18 11:30N 51°57' E 004°08'0 0.0
2017-Jul-18 11:00N 51°57' E 004°08'0 0.0
2017-Jul-18 10:30N 51°57' E 004°08'0 0.0
2017-Jul-18 10:00N 51°57' E 004°08'0 0.0
2017-Jul-18 09:30N 51°57' E 004°08'0 0.0
2017-Jul-18 09:00N 51°57' E 004°08'0 0.0
2017-Jul-18 08:30N 51°57' E 004°08'0 0.0
2017-Jul-18 08:00N 51°57' E 004°08'0 0.0
2017-Jul-18 07:31N 51°57' E 004°08'0 0.0
2017-Jul-18 07:00N 51°57' E 004°08'0 0.0
2017-Jul-18 06:30N 51°57' E 004°08'3 6.3
2017-Jul-18 06:00N 51°59' E 004°04'918.0
2017-Jul-18 05:30N 52°02' E 003°50'917.8
2017-Jul-18 05:00N 52°05' E 003°37'918.4
2017-Jul-18 04:30N 52°10' E 003°24'917.6
2017-Jul-18 04:00N 52°15' E 003°13'918.2
2017-Jul-18 03:30N 52°21' E 003°01'918.4
2017-Jul-18 03:00N 52°27' E 002°49'918.6
2017-Jul-18 02:30N 52°32' E 002°37'1019.1
2017-Jul-18 02:00N 52°38' E 002°25'1019.7
2017-Jul-18 01:30N 52°43' E 002°11'1020.1
2017-Jul-18 01:00N 52°47' E 001°56'1020.0
2017-Jul-18 00:30N 52°53' E 001°42'1020.1
2017-Jul-18 00:00N 52°60' E 001°30'1019.4
2017-Jul-17 23:30N 53°07' E 001°19'1019.2
2017-Jul-17 23:00N 53°14' E 001°08'1018.9
2017-Jul-17 22:28N 53°21' E 000°56'918.9
2017-Jul-17 22:00N 53°25' E 000°43'1418.9
2017-Jul-17 21:16N 53°32' E 000°23'517.9
2017-Jul-17 21:00N 53°33' E 000°15'816.0
2017-Jul-17 20:30N 53°35' E 000°02'714.7
2017-Jul-17 20:00N 53°38' W 000°10'611.5
2017-Jul-17 19:30N 53°43' W 000°15'2 4.0
2017-Jul-17 19:00N 53°44' W 000°17'0 0.0
2017-Jul-17 18:30N 53°44' W 000°17'0 0.0
2017-Jul-17 17:59N 53°44' W 000°17'0 0.0
2017-Jul-17 17:29N 53°44' W 000°17'0 0.0
2017-Jul-17 16:59N 53°44' W 000°17'0 0.0
2017-Jul-17 16:29N 53°44' W 000°17'0 0.0
2017-Jul-17 15:59N 53°44' W 000°17'0 0.0
2017-Jul-17 15:28N 53°44' W 000°17'0 0.0
2017-Jul-17 14:58N 53°44' W 000°17'0 0.0
2017-Jul-17 14:28N 53°44' W 000°17'0 0.0
2017-Jul-17 13:58N 53°44' W 000°17'0 0.0
2017-Jul-17 13:24N 53°44' W 000°17'0 0.0
2017-Jul-17 13:00N 53°44' W 000°17'0 0.0
2017-Jul-17 12:30N 53°44' W 000°17'0 0.0
2017-Jul-17 12:00N 53°44' W 000°17'0 0.0
2017-Jul-17 11:30N 53°44' W 000°17'0 0.0
2017-Jul-17 10:59N 53°44' W 000°17'0 0.0
2017-Jul-17 10:29N 53°44' W 000°17'0 0.0
2017-Jul-17 09:59N 53°44' W 000°17'0 0.0
2017-Jul-17 09:29N 53°44' W 000°17'0 0.0
2017-Jul-17 08:59N 53°44' W 000°17'0 0.0
2017-Jul-17 08:28N 53°44' W 000°17'0 0.0
2017-Jul-17 07:58N 53°44' W 000°17'0 0.0
2017-Jul-17 07:28N 53°44' W 000°17'0 0.0
2017-Jul-17 06:58N 53°44' W 000°17'0 0.0
2017-Jul-17 06:30N 53°44' W 000°17'0 0.0
2017-Jul-17 06:00N 53°44' W 000°17'1 1.4
2017-Jul-17 05:30N 53°44' W 000°16'612.5
2017-Jul-17 05:00N 53°38' W 000°11'713.6
2017-Jul-17 04:31N 53°35' W 000°01'3616.4
2017-Jul-17 02:20N 53°23' E 000°55'617.6
2017-Jul-17 02:01N 53°20' E 001°04'917.2
2017-Jul-17 01:30N 53°14' E 001°14'816.7
2017-Jul-17 01:00N 53°09' E 001°25'816.5
2017-Jul-17 00:31N 53°04' E 001°36'816.5
2017-Jul-17 00:01N 52°59' E 001°48'816.5
2017-Jul-16 23:31N 52°54' E 001°58'917.3
2017-Jul-16 23:01N 52°48' E 002°09'918.2
2017-Jul-16 22:30N 52°42' E 002°20'918.5
2017-Jul-16 22:00N 52°36' E 002°32'1918.8
2017-Jul-16 20:58N 52°25' E 002°58'3433.1
2017-Jul-16 19:57N 52°06' E 003°44'0 0.0
2017-Jul-16 19:30N 52°06' E 003°44'2 4.8
2017-Jul-16 19:00N 52°05' E 003°48'917.5
2017-Jul-16 18:31N 52°01' E 003°60'612.2
2017-Jul-16 18:00N 51°57' E 004°08'0 0.7
2017-Jul-16 17:30N 51°57' E 004°08'0 0.0
2017-Jul-16 17:00N 51°57' E 004°08'0 0.0
2017-Jul-16 16:30N 51°57' E 004°08'0 0.0
2017-Jul-16 16:00N 51°57' E 004°08'0 0.0
2017-Jul-16 15:30N 51°57' E 004°08'0 0.0
2017-Jul-16 15:00N 51°57' E 004°08'0 0.0
2017-Jul-16 14:30N 51°57' E 004°08'0 0.0
2017-Jul-16 14:00N 51°57' E 004°08'0 0.0
2017-Jul-16 13:30N 51°57' E 004°08'0 0.0
2017-Jul-16 13:00N 51°57' E 004°08'0 0.0
2017-Jul-16 12:30N 51°57' E 004°08'0 0.0
2017-Jul-16 12:00N 51°57' E 004°08'0 0.0
2017-Jul-16 11:30N 51°57' E 004°08'0 0.0
2017-Jul-16 11:00N 51°57' E 004°08'0 0.0
2017-Jul-16 10:30N 51°57' E 004°08'0 0.0
2017-Jul-16 10:00N 51°57' E 004°08'0 0.0
2017-Jul-16 09:29N 51°57' E 004°08'0 0.0
2017-Jul-16 09:00N 51°57' E 004°08'0 0.0
2017-Jul-16 08:30N 51°57' E 004°08'0 0.0
2017-Jul-16 08:00N 51°57' E 004°08'0 0.0
2017-Jul-16 07:30N 51°57' E 004°08'0 0.0
2017-Jul-16 07:00N 51°57' E 004°08'2 4.2
2017-Jul-16 06:30N 51°58' E 004°06'1019.8
2017-Jul-16 06:00N 52°01' E 003°50'816.1
2017-Jul-16 05:30N 52°04' E 003°38'7016.4
2017-Jul-16 01:16N 52°45' E 002°05'417.1
2017-Jul-16 01:00N 52°47' E 001°59'917.3
2017-Jul-16 00:30N 52°51' E 001°46'917.6
2017-Jul-16 00:00N 52°55' E 001°33'917.8
2017-Jul-15 23:30N 52°59' E 001°20'5117.1
2017-Jul-15 20:30N 53°32' E 000°15'815.7
2017-Jul-15 20:00N 53°35' E 000°03'815.3
2017-Jul-15 19:31N 53°38' W 000°09'611.6
2017-Jul-15 19:00N 53°43' W 000°14'2 4.2
2017-Jul-15 18:30N 53°44' W 000°17'0 0.0
2017-Jul-15 18:00N 53°44' W 000°17'0 0.0
2017-Jul-15 17:30N 53°44' W 000°17'0 0.0
2017-Jul-15 16:59N 53°44' W 000°17'0 0.0
2017-Jul-15 16:29N 53°44' W 000°17'0 0.0
2017-Jul-15 15:59N 53°44' W 000°17'0 0.0
2017-Jul-15 15:29N 53°44' W 000°17'0 0.0
2017-Jul-15 14:55N 53°44' W 000°17'0 0.0
2017-Jul-15 13:58N 53°44' W 000°17'0 0.0
2017-Jul-15 13:28N 53°44' W 000°17'0 0.0
2017-Jul-15 12:58N 53°44' W 000°17'0 0.0
2017-Jul-15 12:30N 53°44' W 000°17'0 0.0
2017-Jul-15 12:00N 53°44' W 000°17'0 0.0
2017-Jul-15 11:30N 53°44' W 000°17'0 0.0
2017-Jul-15 10:57N 53°44' W 000°17'0 0.0
2017-Jul-15 10:30N 53°44' W 000°17'0 0.0
2017-Jul-15 09:59N 53°44' W 000°17'0 0.0
2017-Jul-15 09:29N 53°44' W 000°17'0 0.0
2017-Jul-15 08:59N 53°44' W 000°17'0 0.0
2017-Jul-15 08:29N 53°44' W 000°17'0 0.0
2017-Jul-15 07:59N 53°44' W 000°17'0 0.0
2017-Jul-15 07:28N 53°44' W 000°17'0 0.0
2017-Jul-15 07:00N 53°44' W 000°17'3 6.1
2017-Jul-15 06:30N 53°42' W 000°14'713.8
2017-Jul-15 06:00N 53°37' W 000°06'918.3
2017-Jul-15 05:30N 53°33' E 000°09'2716.2
2017-Jul-15 03:51N 53°23' E 000°51'617.3
2017-Jul-15 03:30N 53°20' E 000°59'917.8
2017-Jul-15 03:00N 53°15' E 001°10'917.4
2017-Jul-15 02:30N 53°09' E 001°22'816.8
2017-Jul-15 02:01N 53°04' E 001°33'816.3
2017-Jul-15 01:30N 52°60' E 001°45'815.8
2017-Jul-15 01:00N 52°55' E 001°55'815.3
2017-Jul-15 00:31N 52°50' E 002°05'7118.0
2017-Jul-14 20:34N 52°07' E 003°37'0 0.0
2017-Jul-14 20:30N 52°07' E 003°37'3 7.1
2017-Jul-14 20:00N 52°06' E 003°42'815.4
2017-Jul-14 19:30N 52°02' E 003°54'816.8
2017-Jul-14 19:00N 51°59' E 004°06'2 4.5
2017-Jul-14 18:30N 51°57' E 004°08'0 0.0
2017-Jul-14 18:00N 51°57' E 004°08'0 0.0
2017-Jul-14 17:30N 51°57' E 004°08'0 0.0
2017-Jul-14 17:00N 51°57' E 004°08'0 0.0
2017-Jul-14 16:30N 51°57' E 004°08'0 0.0
2017-Jul-14 16:00N 51°57' E 004°08'0 0.0
2017-Jul-14 15:29N 51°57' E 004°08'0 0.0
2017-Jul-14 15:00N 51°57' E 004°08'0 0.0
2017-Jul-14 14:30N 51°57' E 004°08'0 0.0
2017-Jul-14 14:00N 51°57' E 004°08'0 0.0
2017-Jul-14 13:30N 51°57' E 004°08'0 0.0
2017-Jul-14 13:00N 51°57' E 004°08'0 0.0
2017-Jul-14 12:30N 51°57' E 004°08'0 0.0
2017-Jul-14 12:00N 51°57' E 004°08'0 0.0
2017-Jul-14 11:30N 51°57' E 004°08'0 0.0
2017-Jul-14 11:00N 51°57' E 004°08'0 0.0
2017-Jul-14 10:30N 51°57' E 004°08'0 0.0
2017-Jul-14 10:00N 51°57' E 004°08'0 0.0
2017-Jul-14 09:30N 51°57' E 004°08'0 0.0
2017-Jul-14 09:00N 51°57' E 004°08'0 0.0
2017-Jul-14 08:30N 51°57' E 004°08'0 0.0
2017-Jul-14 08:00N 51°57' E 004°08'0 0.0
2017-Jul-14 07:30N 51°57' E 004°08'0 0.0
2017-Jul-14 07:00N 51°57' E 004°08'0 0.0
2017-Jul-14 06:30N 51°57' E 004°08'2 4.4
2017-Jul-14 06:01N 51°58' E 004°06'918.4
2017-Jul-14 05:30N 52°01' E 003°51'6817.9
2017-Jul-14 01:42N 52°38' E 002°18'418.3
2017-Jul-14 01:29N 52°40' E 002°13'918.6
2017-Jul-14 01:00N 52°45' E 001°60'1019.2
2017-Jul-14 00:30N 52°50' E 001°46'918.9
2017-Jul-14 00:00N 52°56' E 001°35'1019.5
2017-Jul-13 23:30N 53°04' E 001°25'1019.4
2017-Jul-13 23:00N 53°11' E 001°14'917.9
2017-Jul-13 22:30N 53°17' E 001°03'3118.5
2017-Jul-13 20:49N 53°31' E 000°16'516.9
2017-Jul-13 20:30N 53°33' E 000°08'816.9
2017-Jul-13 20:00N 53°37' W 000°05'713.8
2017-Jul-13 19:30N 53°41' W 000°14'4 7.0
2017-Jul-13 18:59N 53°44' W 000°17'0 0.0
2017-Jul-13 18:29N 53°44' W 000°17'0 0.0
2017-Jul-13 17:59N 53°44' W 000°17'0 0.0
2017-Jul-13 17:29N 53°44' W 000°17'0 0.0
2017-Jul-13 16:58N 53°44' W 000°17'0 0.0
2017-Jul-13 16:28N 53°44' W 000°17'0 0.0
2017-Jul-13 15:58N 53°44' W 000°17'0 0.0
2017-Jul-13 15:28N 53°44' W 000°17'0 0.0
2017-Jul-13 15:00N 53°44' W 000°17'0 0.0
2017-Jul-13 14:30N 53°44' W 000°17'0 0.0
2017-Jul-13 14:00N 53°44' W 000°17'0 0.0
2017-Jul-13 13:30N 53°44' W 000°17'0 0.0
2017-Jul-13 13:00N 53°44' W 000°17'0 0.0
2017-Jul-13 12:29N 53°44' W 000°17'0 0.0
2017-Jul-13 11:59N 53°44' W 000°17'0 0.0
2017-Jul-13 11:29N 53°44' W 000°17'0 0.0
2017-Jul-13 10:59N 53°44' W 000°17'0 0.0
2017-Jul-13 10:28N 53°44' W 000°17'0 0.0
2017-Jul-13 09:58N 53°44' W 000°17'0 0.0
2017-Jul-13 09:28N 53°44' W 000°17'0 0.0
2017-Jul-13 08:58N 53°44' W 000°17'0 0.0
2017-Jul-13 08:28N 53°44' W 000°17'0 0.0
2017-Jul-13 08:00N 53°44' W 000°17'0 0.0
2017-Jul-13 07:30N 53°44' W 000°17'0 0.0
2017-Jul-13 07:00N 53°44' W 000°17'0 0.0
2017-Jul-13 06:30N 53°44' W 000°17'0 0.0
2017-Jul-13 06:00N 53°44' W 000°17'4 7.1
2017-Jul-13 05:30N 53°41' W 000°14'713.8
2017-Jul-13 05:01N 53°37' W 000°05'918.5
2017-Jul-13 04:30N 53°33' E 000°10'1116.5
2017-Jul-13 03:52N 53°32' E 000°27'717.3
2017-Jul-13 03:29N 53°28' E 000°37'917.9
2017-Jul-13 02:59N 53°24' E 000°50'919.1
2017-Jul-13 02:30N 53°19' E 001°03'1019.7
2017-Jul-13 02:01N 53°13' E 001°15'1020.1
2017-Jul-13 01:30N 53°07' E 001°29'1019.6
2017-Jul-13 01:01N 53°02' E 001°43'1019.0
2017-Jul-13 00:30N 52°56' E 001°55'918.3
2017-Jul-13 00:00N 52°50' E 002°07'7119.9
2017-Jul-12 20:26N 52°06' E 003°39'1 2.1
2017-Jul-12 20:00N 52°06' E 003°40'917.5
2017-Jul-12 19:31N 52°03' E 003°54'918.1
2017-Jul-12 19:00N 51°58' E 004°06'2 4.0
2017-Jul-12 18:30N 51°57' E 004°08'0 0.0
2017-Jul-12 18:00N 51°57' E 004°08'0 0.0
2017-Jul-12 17:30N 51°57' E 004°08'0 0.0
2017-Jul-12 17:00N 51°57' E 004°08'0 0.0
2017-Jul-12 16:30N 51°57' E 004°08'0 0.0
2017-Jul-12 16:00N 51°57' E 004°08'0 0.0
2017-Jul-12 15:30N 51°57' E 004°08'0 0.0
2017-Jul-12 15:00N 51°57' E 004°08'0 0.0
2017-Jul-12 14:00N 51°57' E 004°08'0 0.0
2017-Jul-12 13:30N 51°57' E 004°08'0 0.0
2017-Jul-12 13:00N 51°57' E 004°08'0 0.0
2017-Jul-12 12:30N 51°57' E 004°08'0 0.0
2017-Jul-12 12:00N 51°57' E 004°08'0 0.0
2017-Jul-12 11:30N 51°57' E 004°08'0 0.0
2017-Jul-12 11:00N 51°57' E 004°08'0 0.0
2017-Jul-12 10:29N 51°57' E 004°08'0 0.0
2017-Jul-12 10:00N 51°57' E 004°08'0 0.0
2017-Jul-12 09:30N 51°57' E 004°08'0 0.0
2017-Jul-12 09:00N 51°57' E 004°08'0 0.0
2017-Jul-12 08:30N 51°57' E 004°08'0 0.0
2017-Jul-12 07:59N 51°57' E 004°08'0 0.0
2017-Jul-12 07:31N 51°57' E 004°08'0 0.0
2017-Jul-12 07:00N 51°57' E 004°08'0 0.0
2017-Jul-12 06:30N 51°57' E 004°08'4 8.0
2017-Jul-12 06:00N 51°59' E 004°03'815.7
2017-Jul-12 05:30N 52°01' E 003°50'7217.7
2017-Jul-12 01:25N 52°44' E 002°15'818.9
2017-Jul-12 01:00N 52°49' E 002°06'918.7
2017-Jul-12 00:30N 52°55' E 001°54'1019.0
2017-Jul-12 00:00N 53°00' E 001°41'1019.4
2017-Jul-11 23:30N 53°06' E 001°28'1019.6
2017-Jul-11 23:00N 53°12' E 001°15'1119.4
2017-Jul-11 22:27N 53°19' E 001°01'2718.6
2017-Jul-11 20:59N 53°30' E 000°19'918.5
2017-Jul-11 20:30N 53°34' E 000°06'1019.2
2017-Jul-11 20:00N 53°38' W 000°09'714.5
2017-Jul-11 19:30N 53°44' W 000°16'1 1.1
2017-Jul-11 18:59N 53°44' W 000°17'0 0.0
2017-Jul-11 18:29N 53°44' W 000°17'0 0.0
2017-Jul-11 17:58N 53°44' W 000°17'0 0.0
2017-Jul-11 17:28N 53°44' W 000°17'0 0.0
2017-Jul-11 16:58N 53°44' W 000°17'0 0.0
2017-Jul-11 16:28N 53°44' W 000°17'0 0.0
2017-Jul-11 15:58N 53°44' W 000°17'0 0.0
2017-Jul-11 15:30N 53°44' W 000°17'0 0.0
2017-Jul-11 15:00N 53°44' W 000°17'0 0.0
2017-Jul-11 14:30N 53°44' W 000°17'0 0.0
2017-Jul-11 14:00N 53°44' W 000°17'0 0.0
2017-Jul-11 13:30N 53°44' W 000°17'0 0.0
2017-Jul-11 12:59N 53°44' W 000°17'0 0.0
2017-Jul-11 12:29N 53°44' W 000°17'0 0.0
2017-Jul-11 11:59N 53°44' W 000°17'0 0.0
2017-Jul-11 11:29N 53°44' W 000°17'0 0.0
2017-Jul-11 10:58N 53°44' W 000°17'0 0.0
2017-Jul-11 10:22N 53°44' W 000°17'0 0.0
2017-Jul-11 09:58N 53°44' W 000°17'0 0.0
2017-Jul-11 09:28N 53°44' W 000°17'0 0.0
2017-Jul-11 08:58N 53°44' W 000°17'0 0.0
2017-Jul-11 08:30N 53°44' W 000°17'0 0.0
2017-Jul-11 08:00N 53°44' W 000°17'0 0.0
2017-Jul-11 07:30N 53°44' W 000°17'0 0.0
2017-Jul-11 07:00N 53°44' W 000°17'0 0.0
2017-Jul-11 06:30N 53°44' W 000°17'0 0.0
2017-Jul-11 06:00N 53°44' W 000°17'3 6.5
2017-Jul-11 05:30N 53°42' W 000°14'917.5
2017-Jul-11 05:00N 53°36' W 000°02'1219.6
2017-Jul-11 04:25N 53°33' E 000°16'  

Dump ship's entire track history